sensor_id;sensor_type;location;lat;lon;timestamp;temperature;humidity
41080;DHT22;26826;50.718;7.114;2023-06-24T00:05:33;18.90;99.90
41080;DHT22;26826;50.718;7.114;2023-06-24T00:15:34;18.60;99.90
41080;DHT22;26826;50.718;7.114;2023-06-24T00:25:34;18.60;99.90
41080;DHT22;26826;50.718;7.114;2023-06-24T00:35:35;18.40;99.90
41080;DHT22;26826;50.718;7.114;2023-06-24T00:45:35;18.30;99.90
41080;DHT22;26826;50.718;7.114;2023-06-24T00:55:36;18.30;99.90
41080;DHT22;26826;50.718;7.114;2023-06-24T01:05:37;18.10;99.90
41080;DHT22;26826;50.718;7.114;2023-06-24T01:15:38;18.00;99.90
41080;DHT22;26826;50.718;7.114;2023-06-24T01:36:11;17.80;99.90
41080;DHT22;26826;50.718;7.114;2023-06-24T01:46:14;17.80;99.90
41080;DHT22;26826;50.718;7.114;2023-06-24T01:56:17;17.70;99.90
41080;DHT22;26826;50.718;7.114;2023-06-24T02:06:19;17.50;99.90
41080;DHT22;26826;50.718;7.114;2023-06-24T02:16:21;17.50;99.90
41080;DHT22;26826;50.718;7.114;2023-06-24T02:26:23;17.40;99.90
41080;DHT22;26826;50.718;7.114;2023-06-24T02:36:26;17.30;99.90
41080;DHT22;26826;50.718;7.114;2023-06-24T02:46:27;17.30;99.90
41080;DHT22;26826;50.718;7.114;2023-06-24T02:56:30;17.30;99.90
41080;DHT22;26826;50.718;7.114;2023-06-24T03:06:31;17.20;99.90
41080;DHT22;26826;50.718;7.114;2023-06-24T03:16:32;17.10;99.90
41080;DHT22;26826;50.718;7.114;2023-06-24T03:26:38;17.20;99.90
41080;DHT22;26826;50.718;7.114;2023-06-24T03:36:39;17.10;99.90
41080;DHT22;26826;50.718;7.114;2023-06-24T03:46:39;17.00;99.90
41080;DHT22;26826;50.718;7.114;2023-06-24T03:56:40;16.90;99.90
41080;DHT22;26826;50.718;7.114;2023-06-24T04:06:40;17.00;99.90
41080;DHT22;26826;50.718;7.114;2023-06-24T04:16:41;17.10;99.90
41080;DHT22;26826;50.718;7.114;2023-06-24T04:26:41;17.10;99.90
41080;DHT22;26826;50.718;7.114;2023-06-24T04:36:42;17.30;99.90
41080;DHT22;26826;50.718;7.114;2023-06-24T04:46:42;17.40;99.90
41080;DHT22;26826;50.718;7.114;2023-06-24T05:07:24;17.40;99.90
41080;DHT22;26826;50.718;7.114;2023-06-24T05:17:25;17.50;99.90
41080;DHT22;26826;50.718;7.114;2023-06-24T05:27:26;17.70;99.90
41080;DHT22;26826;50.718;7.114;2023-06-24T05:37:26;18.00;99.90
41080;DHT22;26826;50.718;7.114;2023-06-24T05:47:26;18.30;99.90
41080;DHT22;26826;50.718;7.114;2023-06-24T05:57:27;18.50;99.90
41080;DHT22;26826;50.718;7.114;2023-06-24T06:07:28;19.10;99.90
41080;DHT22;26826;50.718;7.114;2023-06-24T06:17:28;19.60;99.90
41080;DHT22;26826;50.718;7.114;2023-06-24T06:27:29;20.40;99.90
41080;DHT22;26826;50.718;7.114;2023-06-24T06:37:29;21.10;99.90
41080;DHT22;26826;50.718;7.114;2023-06-24T06:47:30;21.80;99.90
41080;DHT22;26826;50.718;7.114;2023-06-24T06:57:30;22.60;99.90
41080;DHT22;26826;50.718;7.114;2023-06-24T07:07:32;23.10;99.90
41080;DHT22;26826;50.718;7.114;2023-06-24T07:17:33;23.90;99.90
41080;DHT22;26826;50.718;7.114;2023-06-24T07:27:33;24.50;99.90
41080;DHT22;26826;50.718;7.114;2023-06-24T07:37:34;25.50;99.90
41080;DHT22;26826;50.718;7.114;2023-06-24T07:47:35;25.90;99.90
41080;DHT22;26826;50.718;7.114;2023-06-24T07:57:36;26.70;99.90
41080;DHT22;26826;50.718;7.114;2023-06-24T08:07:37;27.20;99.90
41080;DHT22;26826;50.718;7.114;2023-06-24T08:17:38;27.70;99.90
41080;DHT22;26826;50.718;7.114;2023-06-24T08:27:38;28.20;99.90
41080;DHT22;26826;50.718;7.114;2023-06-24T08:37:39;28.70;99.90
41080;DHT22;26826;50.718;7.114;2023-06-24T08:47:40;29.00;99.80
41080;DHT22;26826;50.718;7.114;2023-06-24T08:57:41;29.60;99.10
41080;DHT22;26826;50.718;7.114;2023-06-24T09:07:42;29.70;98.30
41080;DHT22;26826;50.718;7.114;2023-06-24T09:17:45;30.60;97.00
41080;DHT22;26826;50.718;7.114;2023-06-24T09:27:49;30.80;97.00
41080;DHT22;26826;50.718;7.114;2023-06-24T09:37:56;31.50;95.50
41080;DHT22;26826;50.718;7.114;2023-06-24T09:47:57;31.90;93.60
41080;DHT22;26826;50.718;7.114;2023-06-24T09:57:58;32.40;93.20
41080;DHT22;26826;50.718;7.114;2023-06-24T10:07:59;33.20;92.40
41080;DHT22;26826;50.718;7.114;2023-06-24T10:18:03;32.60;91.40
41080;DHT22;26826;50.718;7.114;2023-06-24T10:28:04;32.80;91.70
41080;DHT22;26826;50.718;7.114;2023-06-24T10:38:10;32.10;92.20
41080;DHT22;26826;50.718;7.114;2023-06-24T10:58:14;33.60;90.10
41080;DHT22;26826;50.718;7.114;2023-06-24T11:08:15;33.60;88.90
41080;DHT22;26826;50.718;7.114;2023-06-24T11:18:37;34.10;87.70
41080;DHT22;26826;50.718;7.114;2023-06-24T11:28:38;33.70;86.90
41080;DHT22;26826;50.718;7.114;2023-06-24T11:38:38;33.00;88.10
41080;DHT22;26826;50.718;7.114;2023-06-24T11:48:40;32.40;88.40
41080;DHT22;26826;50.718;7.114;2023-06-24T11:58:43;33.10;86.80
41080;DHT22;26826;50.718;7.114;2023-06-24T12:08:43;33.30;85.50
41080;DHT22;26826;50.718;7.114;2023-06-24T12:18:44;33.20;85.80
41080;DHT22;26826;50.718;7.114;2023-06-24T12:28:44;34.20;84.90
41080;DHT22;26826;50.718;7.114;2023-06-24T12:38:45;34.80;83.40
41080;DHT22;26826;50.718;7.114;2023-06-24T12:48:46;35.00;82.40
41080;DHT22;26826;50.718;7.114;2023-06-24T12:58:46;34.20;81.20
41080;DHT22;26826;50.718;7.114;2023-06-24T13:08:47;33.70;83.00
41080;DHT22;26826;50.718;7.114;2023-06-24T13:18:47;34.00;80.40
41080;DHT22;26826;50.718;7.114;2023-06-24T13:28:48;32.80;81.50
41080;DHT22;26826;50.718;7.114;2023-06-24T13:38:49;32.60;82.70
41080;DHT22;26826;50.718;7.114;2023-06-24T13:48:50;33.00;79.20
41080;DHT22;26826;50.718;7.114;2023-06-24T13:58:51;34.30;81.10
41080;DHT22;26826;50.718;7.114;2023-06-24T14:08:52;34.80;78.90
41080;DHT22;26826;50.718;7.114;2023-06-24T14:18:52;34.40;77.10
41080;DHT22;26826;50.718;7.114;2023-06-24T14:28:53;34.20;76.90
41080;DHT22;26826;50.718;7.114;2023-06-24T14:38:53;34.70;75.90
41080;DHT22;26826;50.718;7.114;2023-06-24T14:48:53;34.50;76.70
41080;DHT22;26826;50.718;7.114;2023-06-24T14:58:54;34.70;76.40
41080;DHT22;26826;50.718;7.114;2023-06-24T15:08:54;33.90;75.90
41080;DHT22;26826;50.718;7.114;2023-06-24T15:18:55;33.80;75.50
41080;DHT22;26826;50.718;7.114;2023-06-24T15:28:55;33.60;76.10
41080;DHT22;26826;50.718;7.114;2023-06-24T15:38:56;33.00;74.80
41080;DHT22;26826;50.718;7.114;2023-06-24T15:48:57;32.90;75.20
41080;DHT22;26826;50.718;7.114;2023-06-24T15:58:58;33.50;73.30
41080;DHT22;26826;50.718;7.114;2023-06-24T16:08:58;33.60;72.50
41080;DHT22;26826;50.718;7.114;2023-06-24T16:18:58;33.60;71.10
41080;DHT22;26826;50.718;7.114;2023-06-24T16:28:59;33.70;71.70
41080;DHT22;26826;50.718;7.114;2023-06-24T16:39:00;32.70;71.50
41080;DHT22;26826;50.718;7.114;2023-06-24T16:59:04;31.90;72.10
41080;DHT22;26826;50.718;7.114;2023-06-24T17:09:04;31.80;72.20
41080;DHT22;26826;50.718;7.114;2023-06-24T17:19:05;31.50;72.50
41080;DHT22;26826;50.718;7.114;2023-06-24T17:29:06;31.40;73.60
41080;DHT22;26826;50.718;7.114;2023-06-24T17:39:08;31.80;72.90
41080;DHT22;26826;50.718;7.114;2023-06-24T17:49:08;30.90;71.60
41080;DHT22;26826;50.718;7.114;2023-06-24T17:59:09;30.50;71.90
41080;DHT22;26826;50.718;7.114;2023-06-24T18:09:09;30.20;71.90
41080;DHT22;26826;50.718;7.114;2023-06-24T18:19:09;30.20;72.20
41080;DHT22;26826;50.718;7.114;2023-06-24T18:29:10;29.90;71.80
41080;DHT22;26826;50.718;7.114;2023-06-24T18:39:10;29.50;72.50
41080;DHT22;26826;50.718;7.114;2023-06-24T18:49:11;29.20;73.90
41080;DHT22;26826;50.718;7.114;2023-06-24T18:59:11;28.80;73.00
41080;DHT22;26826;50.718;7.114;2023-06-24T19:09:12;28.50;74.30
41080;DHT22;26826;50.718;7.114;2023-06-24T19:19:12;28.10;74.90
41080;DHT22;26826;50.718;7.114;2023-06-24T19:29:13;27.70;77.00
41080;DHT22;26826;50.718;7.114;2023-06-24T19:39:13;27.40;78.60
41080;DHT22;26826;50.718;7.114;2023-06-24T19:49:13;27.00;79.50
41080;DHT22;26826;50.718;7.114;2023-06-24T19:59:14;26.60;81.80
41080;DHT22;26826;50.718;7.114;2023-06-24T20:09:14;26.10;83.30
41080;DHT22;26826;50.718;7.114;2023-06-24T20:19:15;25.80;83.70
41080;DHT22;26826;50.718;7.114;2023-06-24T20:29:15;25.40;84.10
41080;DHT22;26826;50.718;7.114;2023-06-24T20:39:16;25.00;83.60
41080;DHT22;26826;50.718;7.114;2023-06-24T20:49:16;24.70;83.90
41080;DHT22;26826;50.718;7.114;2023-06-24T20:59:17;24.40;88.40
41080;DHT22;26826;50.718;7.114;2023-06-24T21:09:17;24.20;90.40
41080;DHT22;26826;50.718;7.114;2023-06-24T21:19:18;24.10;88.70
41080;DHT22;26826;50.718;7.114;2023-06-24T21:29:18;23.80;90.50
41080;DHT22;26826;50.718;7.114;2023-06-24T21:39:19;23.60;92.00
41080;DHT22;26826;50.718;7.114;2023-06-24T21:49:19;23.10;92.50
41080;DHT22;26826;50.718;7.114;2023-06-24T21:59:19;22.70;97.00
41080;DHT22;26826;50.718;7.114;2023-06-24T22:09:20;22.80;99.50
41080;DHT22;26826;50.718;7.114;2023-06-24T22:19:20;22.60;99.90
41080;DHT22;26826;50.718;7.114;2023-06-24T22:29:21;22.40;99.90
41080;DHT22;26826;50.718;7.114;2023-06-24T22:39:21;22.00;99.90
41080;DHT22;26826;50.718;7.114;2023-06-24T22:49:22;21.70;99.90
41080;DHT22;26826;50.718;7.114;2023-06-24T22:59:22;21.60;99.90
41080;DHT22;26826;50.718;7.114;2023-06-24T23:09:23;21.50;99.90
41080;DHT22;26826;50.718;7.114;2023-06-24T23:19:23;21.20;99.90
41080;DHT22;26826;50.718;7.114;2023-06-24T23:29:25;20.80;99.90
41080;DHT22;26826;50.718;7.114;2023-06-24T23:39:26;20.60;99.90
41080;DHT22;26826;50.718;7.114;2023-06-24T23:49:26;20.40;99.90
41080;DHT22;26826;50.718;7.114;2023-06-24T23:59:27;20.30;99.90
